Time;durP1;ratioP1;P1;durP2;ratioP2;P2;SDS_P1;SDS_P2;PMS_P1;PMS_P2;Temp;Humidity;BMP_temperature;BMP_pressure;BME280_temperature;BME280_humidity;BME280_pressure;Samples;Min_cycle;Max_cycle;Signal;HPM_P1;HPM_P2
2022/01/10 00:00:28;;;;;;;;;;;;;;;0.79;90.22;95384.44;10242552;28;97338;-75
2022/01/10 00:05:31;;;;;;;;;;;;;;;0.79;90.11;95360.47;10241231;28;97058;-77
2022/01/10 00:10:35;;;;;;;;;;;;;;;0.76;90.54;95355.56;10239414;28;96888;-77
2022/01/10 00:15:37;;;;;;;;;;;;;;;0.54;90.21;95340.84;10240081;28;100016;-76
2022/01/10 00:20:40;;;;;;;;;;;;;;;0.56;90.53;95338.97;10243286;28;96933;-77
2022/01/10 00:25:44;;;;;;;;;;;;;;;0.60;90.43;95348.09;10272352;28;97345;-77
2022/01/10 00:30:47;;;;;;;;;;;;;;;0.68;90.78;95332.97;10289043;28;96886;-77
2022/01/10 00:35:49;;;;;;;;;;;;;;;0.71;90.14;95342.22;10294432;28;96895;-77
2022/01/10 00:40:53;;;;;;;;;;;;;;;0.71;89.98;95343.03;10292914;28;97535;-77
2022/01/10 00:45:56;;;;;;;;;;;;;;;0.71;89.64;95353.31;10290533;28;96771;-77
2022/01/10 00:50:58;;;;;;;;;;;;;;;0.70;90.16;95366.25;10294001;28;96743;-77
2022/01/10 00:56:02;;;;;;;;;;;;;;;0.66;89.72;95373.38;10292732;28;96765;-77
2022/01/10 01:01:05;;;;;;;;;;;;;;;0.40;89.54;95396.56;10290835;28;97069;-77
2022/01/10 01:06:10;;;;;;;;;;;;;;;0.27;90.52;95411.19;10294716;28;97694;-77
2022/01/10 01:11:26;;;;;;;;;;;;;;;0.37;90.29;95407.06;10300676;28;97585;-77
2022/01/10 01:16:44;;;;;;;;;;;;;;;0.36;90.21;95420.84;10299247;28;96934;-77
2022/01/10 01:27:08;;;;;;;;;;;;;;;0.36;90.38;95431.13;10297795;28;97643;-77
2022/01/10 01:32:11;;;;;;;;;;;;;;;0.43;90.46;95439.25;10298416;28;99186;-77
2022/01/10 01:37:13;;;;;;;;;;;;;;;0.33;90.53;95433.91;10298015;28;96870;-77
2022/01/10 01:42:32;;;;;;;;;;;;;;;0.31;90.04;95437.50;10279562;28;96773;-76
2022/01/10 01:47:35;;;;;;;;;;;;;;;0.32;89.94;95439.94;10299771;28;96822;-77
2022/01/10 01:52:38;;;;;;;;;;;;;;;0.40;90.06;95442.00;10297336;28;96799;-77
2022/01/10 01:57:42;;;;;;;;;;;;;;;0.42;90.17;95446.09;10293844;28;97023;-77
2022/01/10 02:02:45;;;;;;;;;;;;;;;0.45;89.64;95446.84;10301112;28;96851;-77
2022/01/10 02:07:48;;;;;;;;;;;;;;;0.40;90.17;95454.84;10297823;28;97189;-77
2022/01/10 02:12:52;;;;;;;;;;;;;;;0.32;89.73;95447.66;10293227;28;96917;-77
2022/01/10 02:17:59;;;;;;;;;;;;;;;0.24;89.70;95442.25;10297030;28;97199;-76
2022/01/10 02:23:04;;;;;;;;;;;;;;;0.27;89.74;95457.41;10296125;28;96711;-77
2022/01/10 02:28:06;;;;;;;;;;;;;;;0.29;89.43;95460.72;10295463;28;97225;-77
2022/01/10 02:33:09;;;;;;;;;;;;;;;0.30;89.93;95459.78;10296289;28;97183;-77
2022/01/10 02:38:13;;;;;;;;;;;;;;;0.27;89.76;95474.59;10295916;28;96957;-77
2022/01/10 02:43:16;;;;;;;;;;;;;;;0.27;89.44;95472.84;10295993;28;97020;-77
2022/01/10 02:48:18;;;;;;;;;;;;;;;0.22;89.96;95478.31;10277595;28;97111;-76
2022/01/10 02:53:22;;;;;;;;;;;;;;;0.19;89.80;95481.06;10296971;28;96885;-77
2022/01/10 02:58:25;;;;;;;;;;;;;;;0.17;89.71;95482.94;10295732;28;97450;-77
2022/01/10 03:03:29;;;;;;;;;;;;;;;-0.02;89.56;95479.94;10293141;28;97499;-77
2022/01/10 03:08:34;;;;;;;;;;;;;;;-0.08;89.72;95488.84;10296326;28;96984;-77
2022/01/10 03:13:36;;;;;;;;;;;;;;;-0.14;89.52;95490.09;10294828;28;96913;-77
2022/01/10 03:18:39;;;;;;;;;;;;;;;-0.13;89.80;95493.47;10292383;28;96759;-77
2022/01/10 03:23:43;;;;;;;;;;;;;;;-0.09;89.80;95492.38;10299207;28;97177;-76
2022/01/10 03:28:45;;;;;;;;;;;;;;;-0.16;89.40;95497.06;10307711;28;96988;-77
2022/01/10 03:33:48;;;;;;;;;;;;;;;-0.20;89.48;95494.81;10291096;28;100299;-77
2022/01/10 03:38:52;;;;;;;;;;;;;;;-0.19;88.94;95506.72;10296892;28;97576;-77
2022/01/10 03:43:55;;;;;;;;;;;;;;;-0.29;88.60;95508.25;10294816;28;97219;-77
2022/01/10 03:48:57;;;;;;;;;;;;;;;-0.50;88.05;95518.16;10292041;28;96791;-76
2022/01/10 03:54:01;;;;;;;;;;;;;;;-0.56;88.63;95527.06;10295211;28;97041;-77
2022/01/10 03:59:04;;;;;;;;;;;;;;;-0.68;88.78;95530.38;10292801;28;96888;-77
2022/01/10 04:04:07;;;;;;;;;;;;;;;-0.90;88.99;95524.03;10292437;28;96885;-77
2022/01/10 04:09:11;;;;;;;;;;;;;;;-0.76;90.43;95536.00;10293464;28;97301;-77
2022/01/10 04:14:14;;;;;;;;;;;;;;;-0.62;90.18;95542.84;10292588;28;96910;-77
2022/01/10 04:19:16;;;;;;;;;;;;;;;-0.49;90.05;95543.72;10293098;28;96728;-77
2022/01/10 04:24:20;;;;;;;;;;;;;;;-0.39;89.98;95557.59;10291193;28;96793;-77
2022/01/10 04:29:23;;;;;;;;;;;;;;;-0.38;89.83;95554.09;10293443;28;97049;-77
2022/01/10 04:34:25;;;;;;;;;;;;;;;-0.39;89.34;95567.88;10293309;28;96882;-77
2022/01/10 04:39:30;;;;;;;;;;;;;;;-0.39;89.33;95562.75;10290949;28;96900;-76
2022/01/10 04:44:32;;;;;;;;;;;;;;;-0.54;88.52;95579.09;10301913;28;96924;-77
2022/01/10 04:49:55;;;;;;;;;;;;;;;-0.84;88.72;95582.66;10299102;28;96855;-77
2022/01/10 04:54:59;;;;;;;;;;;;;;;-0.97;88.69;95597.13;10297076;28;96745;-75
2022/01/10 05:00:02;;;;;;;;;;;;;;;-1.12;89.93;95589.47;10300607;28;96722;-78
2022/01/10 05:05:05;;;;;;;;;;;;;;;-1.06;89.81;95600.25;10299190;28;97016;-78
2022/01/10 05:10:09;;;;;;;;;;;;;;;-1.01;90.54;95609.31;10298005;28;96917;-78
2022/01/10 05:15:12;;;;;;;;;;;;;;;-1.03;90.50;95610.31;10298482;28;98017;-78
2022/01/10 05:20:15;;;;;;;;;;;;;;;-1.04;90.49;95601.00;10301328;28;97327;-78
2022/01/10 05:25:19;;;;;;;;;;;;;;;-0.94;89.98;95607.22;10298816;28;96745;-78
2022/01/10 05:30:21;;;;;;;;;;;;;;;-0.92;89.95;95610.50;10296316;28;96776;-78
2022/01/10 05:35:24;;;;;;;;;;;;;;;-0.98;89.53;95623.66;10298973;28;96754;-78
2022/01/10 05:40:28;;;;;;;;;;;;;;;-1.09;89.58;95627.69;10296987;28;97101;-78
2022/01/10 05:45:31;;;;;;;;;;;;;;;-1.08;88.98;95641.38;10295477;28;97611;-78
2022/01/10 05:50:35;;;;;;;;;;;;;;;-1.12;89.49;95635.59;10300347;28;96895;-78
2022/01/10 05:55:39;;;;;;;;;;;;;;;-1.10;88.82;95644.00;10296704;28;96754;-77
2022/01/10 06:00:42;;;;;;;;;;;;;;;-1.20;88.49;95648.03;10293315;28;96772;-78
2022/01/10 06:05:45;;;;;;;;;;;;;;;-1.25;88.38;95644.91;10292421;28;97004;-78
2022/01/10 06:10:49;;;;;;;;;;;;;;;-1.26;88.26;95661.19;10296879;28;101874;-78
2022/01/10 06:15:52;;;;;;;;;;;;;;;-1.29;88.79;95677.59;10294693;28;97015;-78
2022/01/10 06:20:55;;;;;;;;;;;;;;;-1.22;88.79;95678.06;10299382;28;97084;-77
2022/01/10 06:25:59;;;;;;;;;;;;;;;-1.21;88.70;95686.56;10296425;28;97464;-76
2022/01/10 06:31:02;;;;;;;;;;;;;;;-1.25;89.03;95698.72;10293745;28;96808;-78
2022/01/10 06:36:08;;;;;;;;;;;;;;;-1.24;89.34;95692.69;10299009;28;96772;-78
2022/01/10 06:41:13;;;;;;;;;;;;;;;-1.20;89.60;95694.16;10311861;28;97018;-78
2022/01/10 06:46:15;;;;;;;;;;;;;;;-1.18;89.19;95706.91;10296040;28;96746;-76
2022/01/10 06:51:18;;;;;;;;;;;;;;;-1.16;89.27;95720.44;10277497;28;96796;-77
2022/01/10 06:56:22;;;;;;;;;;;;;;;-1.12;89.76;95722.75;10298294;28;96793;-77
2022/01/10 07:01:25;;;;;;;;;;;;;;;-1.02;89.53;95732.47;10296051;28;96903;-79
2022/01/10 07:06:28;;;;;;;;;;;;;;;-0.96;89.34;95752.59;10293446;28;97035;-77
2022/01/10 07:11:32;;;;;;;;;;;;;;;-1.13;90.25;95762.09;10297491;28;97010;-77
2022/01/10 07:16:35;;;;;;;;;;;;;;;-1.15;90.71;95769.06;10294547;28;96897;-78
2022/01/10 07:21:39;;;;;;;;;;;;;;;-1.04;90.81;95790.69;10290895;28;97254;-77
2022/01/10 07:26:43;;;;;;;;;;;;;;;-0.95;91.13;95787.59;10297946;28;96770;-78
2022/01/10 07:31:45;;;;;;;;;;;;;;;-0.77;90.65;95801.91;10294413;28;96969;-77
2022/01/10 07:36:48;;;;;;;;;;;;;;;-0.59;90.65;95807.72;10290439;28;97072;-78
2022/01/10 07:41:52;;;;;;;;;;;;;;;-0.51;90.34;95827.78;10297360;28;99170;-78
2022/01/10 07:46:55;;;;;;;;;;;;;;;-0.37;89.96;95827.81;10294335;28;100402;-78
2022/01/10 07:51:58;;;;;;;;;;;;;;;-0.23;90.38;95833.84;10291654;28;97365;-77
2022/01/10 07:57:02;;;;;;;;;;;;;;;-0.12;89.91;95836.59;10295724;28;96701;-78
2022/01/10 08:02:05;;;;;;;;;;;;;;;-0.05;89.93;95843.00;10293449;28;97011;-78
2022/01/10 08:07:08;;;;;;;;;;;;;;;0.08;89.75;95867.94;10291988;28;102201;-78
2022/01/10 08:12:12;;;;;;;;;;;;;;;0.17;89.47;95877.69;10292337;28;97330;-77
2022/01/10 08:17:14;;;;;;;;;;;;;;;0.23;89.66;95885.81;10291958;28;96918;-78
2022/01/10 08:22:17;;;;;;;;;;;;;;;0.31;89.57;95894.81;10292998;28;96806;-78
2022/01/10 08:27:21;;;;;;;;;;;;;;;0.39;89.15;95911.44;10291407;28;96776;-78
2022/01/10 08:32:24;;;;;;;;;;;;;;;0.46;88.68;95927.28;10293262;28;96978;-78
2022/01/10 08:37:26;;;;;;;;;;;;;;;0.54;88.96;95934.53;10292670;28;96871;-78
2022/01/10 08:42:31;;;;;;;;;;;;;;;0.59;88.34;95940.22;10291407;28;99988;-77
2022/01/10 08:47:33;;;;;;;;;;;;;;;0.69;87.61;95946.44;10295401;28;96822;-77
2022/01/10 08:52:36;;;;;;;;;;;;;;;0.75;87.91;95961.47;10293100;28;96785;-77
2022/01/10 08:57:40;;;;;;;;;;;;;;;0.80;85.35;95963.78;10288894;28;96772;-77
2022/01/10 09:02:44;;;;;;;;;;;;;;;0.93;88.80;95974.13;10294872;28;96891;-77
2022/01/10 09:07:47;;;;;;;;;;;;;;;0.95;88.36;95972.31;10292091;28;96910;-78
2022/01/10 09:12:51;;;;;;;;;;;;;;;0.94;86.96;95975.78;10288736;28;96917;-77
2022/01/10 09:17:53;;;;;;;;;;;;;;;0.89;87.14;95986.34;10294190;28;96934;-76
2022/01/10 09:22:56;;;;;;;;;;;;;;;0.85;86.10;95990.03;10292055;28;96742;-77
2022/01/10 09:28:00;;;;;;;;;;;;;;;0.84;85.33;95996.09;10291644;28;96785;-77
2022/01/10 09:33:03;;;;;;;;;;;;;;;0.84;84.13;95987.56;10299598;28;96857;-77
2022/01/10 09:38:06;;;;;;;;;;;;;;;0.89;84.53;96001.78;10299044;28;97030;-77
2022/01/10 09:43:10;;;;;;;;;;;;;;;0.91;84.14;96006.84;10297411;28;96927;-76
2022/01/10 09:48:13;;;;;;;;;;;;;;;0.98;84.08;96026.09;10297240;28;96886;-78
2022/01/10 09:53:18;;;;;;;;;;;;;;;1.00;83.84;96021.72;10298723;28;96839;-77
2022/01/10 09:58:23;;;;;;;;;;;;;;;1.03;82.83;96026.66;10297866;28;96828;-77
2022/01/10 10:03:26;;;;;;;;;;;;;;;1.04;83.48;96030.88;10294884;28;96871;-77
2022/01/10 10:08:29;;;;;;;;;;;;;;;1.01;84.24;96033.66;10299443;28;96871;-77
2022/01/10 10:13:35;;;;;;;;;;;;;;;0.97;85.48;96043.28;10297641;28;99345;-77
2022/01/10 10:18:38;;;;;;;;;;;;;;;0.95;85.85;96041.75;10293544;28;96776;-76
2022/01/10 10:23:46;;;;;;;;;;;;;;;0.96;85.51;96049.34;10299997;28;96844;-77
2022/01/10 10:28:51;;;;;;;;;;;;;;;1.03;85.66;96057.53;10297514;28;97266;-77
2022/01/10 10:33:55;;;;;;;;;;;;;;;1.03;85.59;96054.94;10293742;28;96817;-76
2022/01/10 10:38:59;;;;;;;;;;;;;;;1.06;84.99;96062.47;10297881;28;97040;-77
2022/01/10 10:44:04;;;;;;;;;;;;;;;1.11;84.34;96065.59;10294902;28;96755;-77
2022/01/10 10:49:08;;;;;;;;;;;;;;;1.14;84.95;96062.84;10294707;28;96942;-78
2022/01/10 10:54:11;;;;;;;;;;;;;;;1.15;85.23;96059.34;10295703;28;97022;-77
2022/01/10 10:59:15;;;;;;;;;;;;;;;1.25;86.06;96062.19;10294422;28;96816;-77
2022/01/10 11:04:18;;;;;;;;;;;;;;;1.33;84.43;96064.25;10295236;28;96763;-77
2022/01/10 11:09:21;;;;;;;;;;;;;;;1.44;84.87;96069.59;10293669;28;96751;-76
2022/01/10 11:14:25;;;;;;;;;;;;;;;1.49;83.96;96075.28;10296239;28;97027;-77
2022/01/10 11:19:28;;;;;;;;;;;;;;;1.53;83.94;96075.91;10295738;28;97027;-77
2022/01/10 11:24:48;;;;;;;;;;;;;;;1.52;83.54;96087.13;10292879;28;96895;-77
2022/01/10 11:29:55;;;;;;;;;;;;;;;1.45;83.85;96076.41;10290088;28;97102;-77
2022/01/10 11:35:05;;;;;;;;;;;;;;;1.43;82.86;96078.22;10294329;28;97114;-77
2022/01/10 11:40:08;;;;;;;;;;;;;;;1.42;83.04;96083.47;10293084;28;96843;-77
2022/01/10 11:45:13;;;;;;;;;;;;;;;1.43;81.86;96078.22;10294301;28;99857;-76
2022/01/10 11:50:24;;;;;;;;;;;;;;;1.50;83.28;96082.06;10292677;28;96807;-75
2022/01/10 11:55:31;;;;;;;;;;;;;;;1.61;82.00;96099.44;10294217;28;96966;-76
2022/01/10 12:00:38;;;;;;;;;;;;;;;1.71;81.25;96104.81;10291146;28;97163;-76
2022/01/10 12:05:41;;;;;;;;;;;;;;;1.70;81.86;96096.28;10296567;28;97199;-76
2022/01/10 12:10:44;;;;;;;;;;;;;;;1.75;81.26;96101.97;10294759;28;103087;-77
2022/01/10 12:15:48;;;;;;;;;;;;;;;1.84;78.85;96095.41;10289257;28;96834;-76
2022/01/10 12:20:52;;;;;;;;;;;;;;;1.92;80.28;96103.47;10296620;28;97658;-77
2022/01/10 12:25:54;;;;;;;;;;;;;;;1.98;81.22;96111.72;10291957;28;97305;-76
2022/01/10 12:31:02;;;;;;;;;;;;;;;2.07;79.65;96116.28;10290705;28;96827;-76
2022/01/10 12:36:05;;;;;;;;;;;;;;;2.10;81.15;96108.38;10293836;28;96911;-77
2022/01/10 12:41:08;;;;;;;;;;;;;;;2.18;80.43;96115.59;10292787;28;96976;-77
2022/01/10 12:46:12;;;;;;;;;;;;;;;2.24;79.77;96116.03;10292190;28;96911;-76
2022/01/10 12:51:15;;;;;;;;;;;;;;;2.27;80.00;96117.59;10291994;28;96925;-76
2022/01/10 12:56:36;;;;;;;;;;;;;;;2.33;81.10;96119.75;10294815;28;96818;-77
2022/01/10 13:01:40;;;;;;;;;;;;;;;2.43;80.61;96117.41;10294878;28;97111;-76
2022/01/10 13:06:46;;;;;;;;;;;;;;;2.49;81.05;96123.00;10295996;28;96755;-76
2022/01/10 13:12:01;;;;;;;;;;;;;;;2.47;79.28;96136.91;10294748;28;98669;-76
2022/01/10 13:17:08;;;;;;;;;;;;;;;2.49;79.54;96128.16;10298478;28;97004;-76
2022/01/10 13:22:13;;;;;;;;;;;;;;;2.54;80.79;96145.06;10298612;28;97547;-76
2022/01/10 13:27:21;;;;;;;;;;;;;;;2.52;78.82;96140.00;10297226;28;97061;-76
2022/01/10 13:32:26;;;;;;;;;;;;;;;2.48;77.99;96148.88;10302438;28;96948;-76
2022/01/10 13:37:30;;;;;;;;;;;;;;;2.50;76.65;96155.56;10299060;28;96872;-76
2022/01/10 13:42:37;;;;;;;;;;;;;;;2.53;78.69;96151.97;10296315;28;96902;-76
2022/01/10 13:47:58;;;;;;;;;;;;;;;2.62;78.33;96164.25;10300744;28;97640;-76
2022/01/10 13:53:08;;;;;;;;;;;;;;;2.65;76.40;96169.22;10298233;28;96774;-76
2022/01/10 13:58:24;;;;;;;;;;;;;;;2.71;75.57;96169.75;10296968;28;99638;-76
2022/01/10 14:03:29;;;;;;;;;;;;;;;2.69;75.05;96177.59;10281422;28;99996;-75
2022/01/10 14:08:32;;;;;;;;;;;;;;;2.72;78.38;96181.69;10298178;28;96900;-76
2022/01/10 14:13:35;;;;;;;;;;;;;;;2.76;77.53;96190.91;10296881;28;97205;-76
2022/01/10 14:18:40;;;;;;;;;;;;;;;2.76;78.23;96191.72;10293764;28;96733;-76
2022/01/10 14:23:43;;;;;;;;;;;;;;;2.85;79.73;96205.78;10300082;28;96754;-75
2022/01/10 14:28:46;;;;;;;;;;;;;;;2.94;78.08;96205.16;10296777;28;96936;-76
2022/01/10 14:33:51;;;;;;;;;;;;;;;2.94;74.90;96200.00;10293002;28;96897;-76
2022/01/10 14:38:54;;;;;;;;;;;;;;;2.95;78.17;96222.31;10299259;28;96783;-76
2022/01/10 14:43:57;;;;;;;;;;;;;;;2.91;78.53;96226.03;10297092;28;97195;-76
2022/01/10 14:49:01;;;;;;;;;;;;;;;2.91;78.17;96233.75;10294258;28;96710;-75
2022/01/10 14:54:04;;;;;;;;;;;;;;;2.83;75.07;96233.44;10296934;28;101766;-76
2022/01/10 14:59:06;;;;;;;;;;;;;;;2.87;77.94;96245.19;10294736;28;97032;-76
2022/01/10 15:04:10;;;;;;;;;;;;;;;2.87;78.55;96255.53;10294583;28;97097;-75
2022/01/10 15:09:13;;;;;;;;;;;;;;;2.86;78.48;96269.38;10296531;28;96876;-76
2022/01/10 15:14:16;;;;;;;;;;;;;;;2.82;77.88;96260.16;10294388;28;96900;-76
2022/01/10 15:19:20;;;;;;;;;;;;;;;2.76;75.86;96258.81;10294289;28;96837;-76
2022/01/10 15:24:22;;;;;;;;;;;;;;;2.69;74.53;96276.41;10292982;28;96798;-76
2022/01/10 15:29:25;;;;;;;;;;;;;;;2.62;75.29;96274.34;10296874;28;96919;-76
2022/01/10 15:34:32;;;;;;;;;;;;;;;2.53;75.18;96288.66;10294855;28;97120;-76
2022/01/10 15:39:35;;;;;;;;;;;;;;;2.41;70.73;96302.31;10292101;28;98878;-76
2022/01/10 15:44:38;;;;;;;;;;;;;;;2.25;76.06;96300.69;10297012;28;97012;-76
2022/01/10 15:49:42;;;;;;;;;;;;;;;2.06;76.84;96301.00;10293445;28;96726;-76
2022/01/10 15:54:45;;;;;;;;;;;;;;;1.87;74.84;96321.91;10290128;28;98183;-76
2022/01/10 15:59:48;;;;;;;;;;;;;;;1.78;76.27;96322.44;10289490;28;97654;-77
2022/01/10 16:04:52;;;;;;;;;;;;;;;1.66;75.70;96330.88;10293529;28;97979;-77
2022/01/10 16:09:58;;;;;;;;;;;;;;;1.50;71.43;96346.41;10291553;28;99641;-76
2022/01/10 16:15:01;;;;;;;;;;;;;;;1.41;76.67;96347.78;10295320;28;96706;-75
2022/01/10 16:20:06;;;;;;;;;;;;;;;1.30;73.05;96360.44;10293588;28;97319;-77
2022/01/10 16:25:09;;;;;;;;;;;;;;;1.24;73.11;96358.22;10292914;28;97637;-77
2022/01/10 16:30:12;;;;;;;;;;;;;;;1.24;72.84;96369.31;10293253;28;96828;-77
2022/01/10 16:35:16;;;;;;;;;;;;;;;1.19;71.50;96376.47;10291697;28;96925;-77
2022/01/10 16:40:19;;;;;;;;;;;;;;;1.10;71.69;96390.69;10296075;28;97406;-76
2022/01/10 16:45:21;;;;;;;;;;;;;;;1.07;69.88;96382.31;10297185;28;96712;-77
2022/01/10 16:50:26;;;;;;;;;;;;;;;1.02;72.32;96404.91;10299921;28;99876;-77
2022/01/10 16:55:28;;;;;;;;;;;;;;;0.94;70.88;96402.75;10296545;28;97099;-77
2022/01/10 17:00:31;;;;;;;;;;;;;;;0.89;74.17;96409.91;10296959;28;96974;-76
2022/01/10 17:05:36;;;;;;;;;;;;;;;0.86;72.36;96410.91;10300661;28;96914;-77
2022/01/10 17:10:38;;;;;;;;;;;;;;;0.90;73.53;96419.28;10299793;28;96753;-78
2022/01/10 17:15:41;;;;;;;;;;;;;;;0.83;71.90;96423.09;10295472;28;97042;-75
2022/01/10 17:20:45;;;;;;;;;;;;;;;0.82;73.18;96447.16;10302275;28;97081;-78
2022/01/10 17:25:48;;;;;;;;;;;;;;;0.80;73.42;96449.81;10298963;28;96886;-77
2022/01/10 17:30:51;;;;;;;;;;;;;;;0.84;71.88;96450.47;10292908;28;97105;-78
2022/01/10 17:35:55;;;;;;;;;;;;;;;0.86;70.45;96456.34;10299784;28;98027;-78
2022/01/10 17:40:58;;;;;;;;;;;;;;;0.87;69.52;96468.31;10287136;28;97960;-77
2022/01/10 17:46:00;;;;;;;;;;;;;;;0.83;70.14;96466.81;10294546;28;98886;-77
2022/01/10 17:51:06;;;;;;;;;;;;;;;0.80;72.39;96483.25;10296718;28;97253;-77
2022/01/10 17:56:09;;;;;;;;;;;;;;;0.80;73.14;96503.81;10296710;28;97230;-77
2022/01/10 18:01:13;;;;;;;;;;;;;;;0.68;72.71;96504.47;10297117;28;97268;-77
2022/01/10 18:06:17;;;;;;;;;;;;;;;0.65;74.22;96520.88;10293718;28;101534;-76
2022/01/10 18:11:20;;;;;;;;;;;;;;;0.62;74.52;96526.19;10299225;28;96976;-77
2022/01/10 18:16:25;;;;;;;;;;;;;;;0.64;73.60;96529.50;10296752;28;98652;-76
2022/01/10 18:21:29;;;;;;;;;;;;;;;0.63;68.15;96522.69;10292108;28;96893;-76
2022/01/10 18:26:31;;;;;;;;;;;;;;;0.62;73.12;96518.47;10290350;28;97567;-77
2022/01/10 18:31:34;;;;;;;;;;;;;;;0.55;71.48;96525.69;10294487;28;96891;-76
2022/01/10 18:36:39;;;;;;;;;;;;;;;0.54;72.55;96512.91;10288558;28;96891;-76
2022/01/10 18:41:42;;;;;;;;;;;;;;;0.46;70.46;96525.31;10294783;28;96765;-76
2022/01/10 18:46:45;;;;;;;;;;;;;;;0.45;71.75;96531.38;10293214;28;96921;-76
2022/01/10 18:51:49;;;;;;;;;;;;;;;0.41;74.68;96549.50;10305989;28;98014;-76
2022/01/10 18:56:51;;;;;;;;;;;;;;;0.40;72.90;96539.31;10295286;28;96858;-76
2022/01/10 19:01:54;;;;;;;;;;;;;;;0.37;73.83;96542.03;10295027;28;96891;-73
2022/01/10 19:06:59;;;;;;;;;;;;;;;0.36;75.27;96546.34;10293046;28;96987;-76
2022/01/10 19:12:02;;;;;;;;;;;;;;;0.32;76.78;96560.25;10295611;28;96665;-76
2022/01/10 19:17:09;;;;;;;;;;;;;;;0.26;75.32;96577.72;10294910;28;97054;-76
2022/01/10 19:22:13;;;;;;;;;;;;;;;0.19;76.74;96567.75;10294069;28;97324;-76
2022/01/10 19:27:16;;;;;;;;;;;;;;;0.16;76.74;96574.78;10294117;28;97188;-75
2022/01/10 19:32:18;;;;;;;;;;;;;;;0.13;75.17;96578.31;10294244;28;97110;-75
2022/01/10 19:37:23;;;;;;;;;;;;;;;0.14;76.86;96576.59;10294436;28;96765;-75
2022/01/10 19:42:25;;;;;;;;;;;;;;;0.12;75.43;96578.41;10292666;28;96846;-75
2022/01/10 19:47:28;;;;;;;;;;;;;;;0.10;77.19;96581.03;10296523;28;96890;-75
2022/01/10 19:52:36;;;;;;;;;;;;;;;0.14;76.60;96581.72;10289910;28;96894;-75
2022/01/10 19:57:39;;;;;;;;;;;;;;;0.21;76.48;96588.22;10290195;28;96745;-75
2022/01/10 20:02:42;;;;;;;;;;;;;;;0.22;77.02;96584.75;10296039;28;96735;-73
2022/01/10 20:07:47;;;;;;;;;;;;;;;0.22;76.92;96597.59;10293330;28;96700;-75
2022/01/10 20:12:49;;;;;;;;;;;;;;;0.17;76.94;96612.41;10288815;28;96854;-74
2022/01/10 20:17:54;;;;;;;;;;;;;;;0.14;76.39;96602.28;10296692;28;97284;-69
2022/01/10 20:22:59;;;;;;;;;;;;;;;0.16;76.65;96600.47;10293852;28;96862;-67
2022/01/10 20:28:01;;;;;;;;;;;;;;;0.17;76.37;96607.28;10289963;28;96843;-74
2022/01/10 20:33:04;;;;;;;;;;;;;;;0.18;77.16;96614.06;10290237;28;96662;-74
2022/01/10 20:38:08;;;;;;;;;;;;;;;0.17;77.06;96628.66;10293169;28;97010;-74
2022/01/10 20:43:10;;;;;;;;;;;;;;;0.13;75.73;96618.59;10288924;28;96905;-74
2022/01/10 20:48:13;;;;;;;;;;;;;;;0.15;76.34;96619.34;10291876;28;97158;-74
2022/01/10 20:53:17;;;;;;;;;;;;;;;0.15;76.55;96619.34;10289159;28;96925;-75
2022/01/10 20:58:20;;;;;;;;;;;;;;;0.17;75.60;96617.56;10293284;28;99734;-74
2022/01/10 21:03:23;;;;;;;;;;;;;;;0.20;74.43;96633.66;10287454;28;96712;-74
2022/01/10 21:08:27;;;;;;;;;;;;;;;0.20;75.19;96633.66;10290095;28;99809;-74
2022/01/10 21:13:30;;;;;;;;;;;;;;;0.18;75.89;96638.00;10292566;28;102073;-74
2022/01/10 21:18:33;;;;;;;;;;;;;;;0.18;75.17;96637.19;10288840;28;96941;-74
2022/01/10 21:23:38;;;;;;;;;;;;;;;0.25;76.08;96656.53;10296998;28;96968;-74
2022/01/10 21:28:41;;;;;;;;;;;;;;;0.25;74.62;96641.13;10299181;28;96820;-74
2022/01/10 21:34:05;;;;;;;;;;;;;;;0.26;76.47;96655.63;10296682;28;96723;-74
2022/01/10 21:39:10;;;;;;;;;;;;;;;0.20;74.55;96649.06;10298377;28;99288;-74
2022/01/10 21:44:13;;;;;;;;;;;;;;;0.18;76.09;96650.84;10297824;28;96965;-74
2022/01/10 21:49:15;;;;;;;;;;;;;;;0.22;75.46;96656.69;10297741;28;96837;-74
2022/01/10 21:54:19;;;;;;;;;;;;;;;0.21;77.28;96652.47;10311789;28;96792;-74
2022/01/10 21:59:23;;;;;;;;;;;;;;;0.22;77.34;96666.97;10296856;28;97101;-74
2022/01/10 22:04:26;;;;;;;;;;;;;;;0.17;77.13;96666.38;10296171;28;96941;-74
2022/01/10 22:09:30;;;;;;;;;;;;;;;0.14;77.35;96661.38;10295105;28;96897;-74
2022/01/10 22:14:33;;;;;;;;;;;;;;;0.12;77.27;96665.75;10291339;28;97242;-74
2022/01/10 22:19:40;;;;;;;;;;;;;;;0.11;76.81;96666.66;10291339;28;97178;-74
2022/01/10 22:24:45;;;;;;;;;;;;;;;0.12;76.97;96660.63;10289357;28;96952;-74
2022/01/10 22:29:47;;;;;;;;;;;;;;;0.12;77.98;96678.59;10289634;28;97254;-74
2022/01/10 22:34:50;;;;;;;;;;;;;;;0.12;76.30;96683.75;10288410;28;96873;-73
2022/01/10 22:39:54;;;;;;;;;;;;;;;0.12;77.40;96683.75;10287012;28;99964;-74
2022/01/10 22:44:57;;;;;;;;;;;;;;;0.09;78.27;96689.84;10292746;28;97447;-73
2022/01/10 22:50:00;;;;;;;;;;;;;;;0.07;75.58;96689.09;10285979;28;99874;-73
2022/01/10 22:55:05;;;;;;;;;;;;;;;0.11;77.62;96694.91;10289657;28;97151;-73
2022/01/10 23:00:09;;;;;;;;;;;;;;;0.13;76.58;96682.81;10288065;28;98010;-73
2022/01/10 23:05:13;;;;;;;;;;;;;;;0.13;78.03;96696.47;10284057;28;97435;-73
2022/01/10 23:10:17;;;;;;;;;;;;;;;0.12;77.09;96704.28;10288634;28;97161;-73
2022/01/10 23:15:19;;;;;;;;;;;;;;;0.13;77.80;96700.81;10283420;28;97127;-73
2022/01/10 23:20:23;;;;;;;;;;;;;;;0.12;75.98;96723.09;10295960;28;96771;-73
2022/01/10 23:25:27;;;;;;;;;;;;;;;0.12;77.44;96717.13;10294199;28;96895;-73
2022/01/10 23:30:31;;;;;;;;;;;;;;;0.10;77.67;96718.91;10292831;28;97012;-73
2022/01/10 23:35:33;;;;;;;;;;;;;;;0.08;78.64;96725.88;10292814;28;97017;-73
2022/01/10 23:40:38;;;;;;;;;;;;;;;-0.00;78.38;96718.53;10295174;28;96847;-73
2022/01/10 23:45:42;;;;;;;;;;;;;;;-0.03;78.81;96729.75;10290036;28;96803;-73
2022/01/10 23:50:48;;;;;;;;;;;;;;;-0.05;78.59;96726.44;10297249;28;96953;-73
2022/01/10 23:55:52;;;;;;;;;;;;;;;-0.08;78.73;96730.88;10294250;28;99843;-73
